createdAt,value
2023-01-06T00:01:17.618Z,3.20
2023-01-06T00:03:48.353Z,3.08
2023-01-06T00:06:15.484Z,3.60
2023-01-06T00:08:42.453Z,2.80
2023-01-06T00:11:14.822Z,3.67
2023-01-06T00:13:42.433Z,3.47
2023-01-06T00:16:12.472Z,3.65
2023-01-06T00:18:40.014Z,2.83
2023-01-06T00:21:07.997Z,3.58
2023-01-06T00:23:36.023Z,3.22
2023-01-06T00:26:03.991Z,3.60
2023-01-06T00:28:31.079Z,3.15
2023-01-06T00:30:59.505Z,3.35
2023-01-06T00:33:26.457Z,4.00
2023-01-06T00:35:58.465Z,2.67
2023-01-06T00:38:25.651Z,3.05
2023-01-06T00:40:52.506Z,3.22
2023-01-06T00:43:19.364Z,3.50
2023-01-06T00:45:46.359Z,3.05
2023-01-06T00:48:13.368Z,3.95
2023-01-06T00:50:40.338Z,3.55
2023-01-06T00:53:07.573Z,3.65
2023-01-06T00:55:35.677Z,3.42
2023-01-06T00:58:02.571Z,3.92
2023-01-06T01:00:29.666Z,3.10
2023-01-06T01:02:56.648Z,3.78
2023-01-06T01:05:23.698Z,3.70
2023-01-06T01:07:50.623Z,3.53
2023-01-06T01:10:17.589Z,4.10
2023-01-06T01:12:44.479Z,4.53
2023-01-06T01:15:11.555Z,3.60
2023-01-06T01:17:38.608Z,4.43
2023-01-06T01:20:06.011Z,3.67
2023-01-06T01:22:33.219Z,4.32
2023-01-06T01:25:01.018Z,3.58
2023-01-06T01:27:28.960Z,3.90
2023-01-06T01:29:55.932Z,3.42
2023-01-06T01:32:23.270Z,3.47
2023-01-06T01:34:51.315Z,4.32
2023-01-06T01:37:18.280Z,3.72
2023-01-06T01:39:45.209Z,4.07
2023-01-06T01:42:17.911Z,3.70
2023-01-06T01:45:04.431Z,4.22
2023-01-06T01:47:43.486Z,4.05
2023-01-06T01:50:17.354Z,3.78
2023-01-06T01:52:47.624Z,3.95
2023-01-06T01:55:15.561Z,3.92
2023-01-06T01:57:52.055Z,4.00
2023-01-06T02:00:19.534Z,4.13
2023-01-06T02:02:46.846Z,4.28
2023-01-06T02:05:22.193Z,5.13
2023-01-06T02:07:49.393Z,4.97
2023-01-06T02:10:22.563Z,4.32
2023-01-06T02:12:54.438Z,4.05
2023-01-06T02:15:24.588Z,4.43
2023-01-06T02:18:00.685Z,3.58
2023-01-06T02:20:34.771Z,3.67
2023-01-06T02:23:25.654Z,3.30
2023-01-06T02:26:05.610Z,4.72
2023-01-06T02:29:19.844Z,3.63
2023-01-06T02:32:00.877Z,3.92
2023-01-06T02:34:33.529Z,4.00
2023-01-06T02:37:38.016Z,3.60
2023-01-06T02:40:23.368Z,3.90
2023-01-06T02:42:50.467Z,4.25
2023-01-06T02:45:21.815Z,3.97
2023-01-06T02:47:55.376Z,4.30
2023-01-06T02:50:28.270Z,4.32
2023-01-06T02:53:03.591Z,4.28
2023-01-06T02:55:43.771Z,4.50
2023-01-06T02:58:14.159Z,3.50
2023-01-06T03:00:49.417Z,2.97
2023-01-06T03:03:23.522Z,3.97
2023-01-06T03:05:55.713Z,4.18
2023-01-06T03:08:26.338Z,3.60
2023-01-06T03:10:54.897Z,4.22
2023-01-06T03:13:45.464Z,3.95
2023-01-06T03:16:13.845Z,4.18
2023-01-06T03:18:43.568Z,3.78
2023-01-06T03:21:14.897Z,3.63
2023-01-06T03:23:45.672Z,4.07
2023-01-06T03:26:13.386Z,3.70
2023-01-06T03:28:40.583Z,3.97
2023-01-06T03:31:33.826Z,4.00
2023-01-06T03:34:25.879Z,4.35
2023-01-06T03:37:07.876Z,4.88
2023-01-06T03:39:47.363Z,4.30
2023-01-06T03:42:44.557Z,3.53
2023-01-06T03:45:36.881Z,4.43
2023-01-06T03:48:20.219Z,4.20
2023-01-06T03:50:57.605Z,5.30
2023-01-06T03:53:24.623Z,3.88
2023-01-06T03:56:01.945Z,4.35
2023-01-06T04:00:58.225Z,4.15
2023-01-06T04:03:26.489Z,4.50
2023-01-06T04:05:54.734Z,3.85
2023-01-06T04:08:22.701Z,4.78
2023-01-06T04:10:50.588Z,3.97
2023-01-06T04:13:17.673Z,4.57
2023-01-06T04:15:44.731Z,4.30
2023-01-06T04:18:12.101Z,4.35
2023-01-06T04:20:40.978Z,4.40
2023-01-06T04:23:26.111Z,4.10
2023-01-06T04:25:53.060Z,3.75
2023-01-06T04:28:27.806Z,4.18
2023-01-06T04:30:58.763Z,4.72
2023-01-06T04:33:26.282Z,3.83
2023-01-06T04:35:55.284Z,3.90
2023-01-06T04:38:22.920Z,4.47
2023-01-06T04:40:50.090Z,4.15
2023-01-06T04:43:18.205Z,3.78
2023-01-06T04:45:45.393Z,3.72
2023-01-06T04:48:13.134Z,3.53
2023-01-06T04:50:40.597Z,3.40
2023-01-06T04:53:08.294Z,3.78
2023-01-06T04:55:39.191Z,4.10
2023-01-06T04:58:06.193Z,3.40
2023-01-06T05:00:33.151Z,4.00
2023-01-06T05:03:00.071Z,4.32
2023-01-06T05:05:26.988Z,3.60
2023-01-06T05:07:55.182Z,3.40
2023-01-06T05:10:23.427Z,3.40
2023-01-06T05:12:50.454Z,3.58
2023-01-06T05:15:17.512Z,3.75
2023-01-06T05:17:44.420Z,3.67
2023-01-06T05:20:11.888Z,3.25
2023-01-06T05:22:38.777Z,3.70
2023-01-06T05:25:06.145Z,3.38
2023-01-06T05:27:33.176Z,3.50
2023-01-06T05:30:00.053Z,3.92
2023-01-06T05:32:26.918Z,3.78
2023-01-06T05:34:53.782Z,3.47
2023-01-06T05:37:20.683Z,3.47
2023-01-06T05:39:47.622Z,3.33
2023-01-06T05:42:16.951Z,3.08
2023-01-06T05:44:43.978Z,4.43
2023-01-06T05:47:10.944Z,3.88
2023-01-06T05:49:37.921Z,4.22
2023-01-06T05:52:04.958Z,3.60
2023-01-06T05:54:31.839Z,3.38
2023-01-06T05:56:58.719Z,3.55
2023-01-06T05:59:25.602Z,4.35
2023-01-06T06:01:52.702Z,3.80
2023-01-06T06:04:19.724Z,2.92
2023-01-06T06:06:46.651Z,3.30
2023-01-06T06:09:13.550Z,3.58
2023-01-06T06:11:40.526Z,3.80
2023-01-06T06:14:09.948Z,3.35
2023-01-06T06:16:36.893Z,3.55
2023-01-06T06:19:03.810Z,3.17
2023-01-06T06:21:31.726Z,3.90
2023-01-06T06:24:00.065Z,3.70
2023-01-06T06:26:27.685Z,3.38
2023-01-06T06:28:54.778Z,3.60
2023-01-06T06:31:24.309Z,3.35
2023-01-06T06:33:52.975Z,4.07
2023-01-06T06:36:20.192Z,3.88
2023-01-06T06:38:49.071Z,3.10
2023-01-06T06:41:16.493Z,2.88
2023-01-06T06:43:43.831Z,2.10
2023-01-06T06:46:11.569Z,2.53
2023-01-06T06:48:38.841Z,2.83
2023-01-06T06:51:09.105Z,2.58
2023-01-06T06:53:37.155Z,2.33
2023-01-06T06:56:05.810Z,2.78
2023-01-06T06:58:32.912Z,2.30
2023-01-06T07:01:03.193Z,2.80
2023-01-06T07:03:30.249Z,2.22
2023-01-06T07:05:57.356Z,2.22
2023-01-06T07:08:24.296Z,2.45
2023-01-06T07:10:51.821Z,2.05
2023-01-06T07:13:18.744Z,1.92
2023-01-06T07:15:45.833Z,1.73
2023-01-06T07:18:12.841Z,1.50
2023-01-06T07:20:39.805Z,1.50
2023-01-06T07:23:06.810Z,1.48
2023-01-06T07:25:33.713Z,1.60
2023-01-06T07:28:10.426Z,1.45
2023-01-06T07:30:37.421Z,1.63
2023-01-06T07:33:04.940Z,2.28
2023-01-06T07:35:31.917Z,1.70
2023-01-06T07:38:05.797Z,1.88
2023-01-06T07:40:32.949Z,1.80
2023-01-06T07:43:08.199Z,1.92
2023-01-06T07:45:35.949Z,2.10
2023-01-06T07:48:03.547Z,1.90
2023-01-06T07:50:31.098Z,1.50
2023-01-06T07:52:59.645Z,2.08
2023-01-06T07:55:27.008Z,2.17
2023-01-06T07:57:54.540Z,2.08
2023-01-06T08:00:21.797Z,1.90
2023-01-06T08:02:49.275Z,1.65
2023-01-06T08:05:16.477Z,1.50
2023-01-06T08:07:43.625Z,1.83
2023-01-06T08:10:10.664Z,2.25
2023-01-06T08:12:37.522Z,2.00
2023-01-06T08:15:05.497Z,1.88
2023-01-06T08:17:32.684Z,2.67
2023-01-06T08:19:59.563Z,3.25
2023-01-06T08:22:26.558Z,1.52
2023-01-06T08:24:53.703Z,2.03
2023-01-06T08:27:21.065Z,1.92
2023-01-06T08:29:50.243Z,2.22
2023-01-06T08:32:17.515Z,1.83
2023-01-06T08:34:44.377Z,1.85
2023-01-06T08:37:11.328Z,1.27
2023-01-06T08:39:38.337Z,2.10
2023-01-06T08:42:05.671Z,1.83
2023-01-06T08:44:32.693Z,1.95
2023-01-06T08:46:59.860Z,1.52
2023-01-06T08:49:26.776Z,1.65
2023-01-06T08:51:53.785Z,1.83
2023-01-06T08:54:21.060Z,2.10
2023-01-06T08:56:48.156Z,2.53
2023-01-06T08:59:17.348Z,2.15
2023-01-06T09:01:45.017Z,1.63
2023-01-06T09:04:13.209Z,2.03
2023-01-06T09:06:43.445Z,1.40
2023-01-06T09:09:12.166Z,1.48
2023-01-06T09:11:44.247Z,1.98
2023-01-06T09:14:14.223Z,1.92
2023-01-06T09:16:41.548Z,1.30
2023-01-06T09:19:10.506Z,1.38
2023-01-06T09:21:38.079Z,1.23
2023-01-06T09:24:05.533Z,1.58
2023-01-06T09:26:32.436Z,1.40
2023-01-06T09:28:59.471Z,2.00
2023-01-06T09:31:27.064Z,1.40
2023-01-06T09:33:54.400Z,1.60
2023-01-06T09:36:22.226Z,1.08
2023-01-06T09:38:49.173Z,1.50
2023-01-06T09:41:29.837Z,1.50
2023-01-06T09:44:16.519Z,1.55
2023-01-06T10:18:38.722Z,1.15
2023-01-06T10:21:39.333Z,1.60
2023-01-06T10:24:18.016Z,1.00
2023-01-06T10:26:48.044Z,1.40
2023-01-06T10:29:20.772Z,1.38
2023-01-06T10:31:49.411Z,1.40
2023-01-06T10:34:27.896Z,1.50
2023-01-06T10:37:20.138Z,1.33
2023-01-06T10:39:51.459Z,1.30
2023-01-06T10:42:50.666Z,0.93
2023-01-06T10:45:17.739Z,1.10
2023-01-06T10:47:45.511Z,1.23
2023-01-06T10:50:15.299Z,1.10
2023-01-06T10:52:43.655Z,1.80
2023-01-06T10:55:29.314Z,1.10
2023-01-06T10:58:01.313Z,1.73
2023-01-06T11:00:28.434Z,1.25
2023-01-06T11:03:33.724Z,1.50
2023-01-06T11:06:01.966Z,1.15
2023-01-06T11:08:29.983Z,1.23
2023-01-06T11:10:59.980Z,1.10
2023-01-06T11:13:34.731Z,0.90
2023-01-06T11:16:07.150Z,0.80
2023-01-06T11:18:39.409Z,1.25
2023-01-06T11:21:18.183Z,1.17
2023-01-06T11:23:47.208Z,1.05
2023-01-06T11:26:16.258Z,1.23
2023-01-06T11:28:53.928Z,1.38
2023-01-06T11:31:23.594Z,1.00
2023-01-06T11:33:56.145Z,1.00
2023-01-06T11:36:25.532Z,1.00
2023-01-06T11:38:56.533Z,1.13
2023-01-06T11:41:44.373Z,1.02
2023-01-06T11:44:30.307Z,1.23
2023-01-06T11:47:18.268Z,2.35
2023-01-06T11:50:01.147Z,1.33
2023-01-06T11:52:31.455Z,1.00
2023-01-06T11:55:22.112Z,5.82
2023-01-06T11:58:17.570Z,0.88
2023-01-06T12:01:12.108Z,1.00
2023-01-06T12:03:43.977Z,1.15
2023-01-06T12:06:34.689Z,1.00
2023-01-06T12:09:30.797Z,0.98
2023-01-06T12:12:03.266Z,1.33
2023-01-06T12:14:35.676Z,1.08
2023-01-06T12:17:39.896Z,1.00
2023-01-06T12:20:23.269Z,1.13
2023-01-06T12:23:22.745Z,1.23
2023-01-06T12:25:52.733Z,1.13
2023-01-06T12:28:28.295Z,2.13
2023-01-06T12:31:05.791Z,1.80
2023-01-06T12:33:57.209Z,1.50
2023-01-06T12:36:28.844Z,1.45
2023-01-06T12:38:58.231Z,1.73
2023-01-06T12:41:35.888Z,1.40
2023-01-06T12:44:18.240Z,1.38
2023-01-06T12:46:50.702Z,1.60
2023-01-06T12:49:40.476Z,1.20
2023-01-06T12:52:17.395Z,1.13
2023-01-06T12:54:51.241Z,1.27
2023-01-06T12:57:40.906Z,1.15
2023-01-06T13:00:22.553Z,1.00
2023-01-06T13:03:19.657Z,1.02
2023-01-06T13:06:12.721Z,1.42
2023-01-06T13:08:48.379Z,1.38
2023-01-06T13:11:32.622Z,1.05
2023-01-06T13:14:17.289Z,0.93
2023-01-06T13:16:53.289Z,1.23
2023-01-06T13:19:40.595Z,1.35
2023-01-06T13:22:13.858Z,1.38
2023-01-06T13:24:59.132Z,1.63
2023-01-06T13:27:37.720Z,1.50
2023-01-06T13:30:04.536Z,1.52
2023-01-06T13:32:37.621Z,2.00
2023-01-06T13:35:22.437Z,1.60
2023-01-06T13:38:05.653Z,2.08
2023-01-06T13:40:36.643Z,2.20
2023-01-06T13:43:16.599Z,2.30
2023-01-06T13:45:48.698Z,2.38
2023-01-06T13:48:23.322Z,1.45
2023-01-06T13:50:51.101Z,2.15
2023-01-06T13:53:22.083Z,2.10
2023-01-06T13:56:09.634Z,2.15
2023-01-06T13:58:37.909Z,1.83
2023-01-06T14:01:13.426Z,1.58
2023-01-06T14:03:42.268Z,1.70
2023-01-06T14:06:24.165Z,2.70
2023-01-06T14:08:57.723Z,2.05
2023-01-06T14:11:37.973Z,2.25
2023-01-06T14:14:07.594Z,1.90
2023-01-06T14:16:47.577Z,1.85
2023-01-06T14:19:30.200Z,2.22
2023-01-06T14:22:25.499Z,2.00
2023-01-06T14:24:56.313Z,2.53
2023-01-06T14:27:49.438Z,2.30
2023-01-06T14:30:19.831Z,2.28
2023-01-06T14:32:46.691Z,1.92
2023-01-06T14:35:18.424Z,2.20
2023-01-06T14:37:50.831Z,2.03
2023-01-06T14:40:25.825Z,2.35
2023-01-06T14:42:53.433Z,2.75
2023-01-06T14:45:34.204Z,3.03
2023-01-06T14:48:11.404Z,2.65
2023-01-06T14:50:50.182Z,2.85
2023-01-06T14:53:35.436Z,3.70
2023-01-06T14:56:03.733Z,3.03
2023-01-06T14:58:38.758Z,2.55
2023-01-06T15:01:22.974Z,2.40
2023-01-06T15:03:59.786Z,2.00
2023-01-06T15:06:28.370Z,2.42
2023-01-06T15:09:10.070Z,1.95
2023-01-06T15:11:41.796Z,2.22
2023-01-06T15:14:32.868Z,1.77
2023-01-06T15:17:07.499Z,2.78
2023-01-06T15:19:35.691Z,3.47
2023-01-06T15:22:07.936Z,3.75
2023-01-06T15:24:39.533Z,3.60
2023-01-06T15:27:09.029Z,4.68
2023-01-06T15:29:36.202Z,4.78
2023-01-06T15:32:03.675Z,4.30
2023-01-06T15:34:35.996Z,4.03
2023-01-06T15:37:06.075Z,4.75
2023-01-06T15:39:35.293Z,4.65
2023-01-06T15:42:06.608Z,4.40
2023-01-06T15:44:38.657Z,3.05
2023-01-06T15:47:11.591Z,4.53
2023-01-06T15:49:49.384Z,4.65
2023-01-06T15:52:36.713Z,3.40
2023-01-06T15:55:07.278Z,3.45
2023-01-06T15:57:40.049Z,3.78
2023-01-06T16:00:08.691Z,3.83
2023-01-06T16:02:35.943Z,4.80
2023-01-06T16:05:03.042Z,4.22
2023-01-06T16:07:36.969Z,4.90
2023-01-06T16:10:04.310Z,4.25
2023-01-06T16:12:31.370Z,4.20
2023-01-06T16:14:58.318Z,4.88
2023-01-06T16:17:31.796Z,4.57
2023-01-06T16:20:00.585Z,4.30
2023-01-06T16:22:39.546Z,5.13
2023-01-06T16:25:27.561Z,6.55
2023-01-06T16:27:57.642Z,4.53
2023-01-06T16:30:27.563Z,4.97
2023-01-06T16:33:00.375Z,4.18
2023-01-06T16:35:32.594Z,3.95
2023-01-06T16:38:00.191Z,4.40
2023-01-06T16:40:28.984Z,4.72
2023-01-06T16:43:01.529Z,4.90
2023-01-06T16:45:48.479Z,4.90
2023-01-06T16:48:17.049Z,4.65
2023-01-06T16:50:54.804Z,4.50
2023-01-06T16:53:23.539Z,4.57
2023-01-06T16:55:52.617Z,5.38
2023-01-06T16:58:28.383Z,4.82
2023-01-06T17:00:58.351Z,5.50
2023-01-06T17:03:29.853Z,5.35
2023-01-06T17:05:57.293Z,5.05
2023-01-06T17:08:32.597Z,5.85
2023-01-06T17:11:02.337Z,6.28
2023-01-06T17:13:35.123Z,7.15
2023-01-06T17:16:11.268Z,5.75
2023-01-06T17:18:51.279Z,6.50
2023-01-06T17:21:35.998Z,4.13
2023-01-06T17:24:11.004Z,4.07
2023-01-06T17:26:38.604Z,4.10
2023-01-06T17:29:18.141Z,4.40
2023-01-06T17:31:47.237Z,4.82
2023-01-06T17:34:17.216Z,5.55
2023-01-06T17:36:49.510Z,5.30
2023-01-06T17:39:23.765Z,4.40
2023-01-06T17:42:01.708Z,5.22
2023-01-06T17:44:38.008Z,4.88
2023-01-06T17:47:17.401Z,5.40
2023-01-06T17:49:56.825Z,4.53
2023-01-06T17:52:24.744Z,4.07
2023-01-06T17:55:17.348Z,3.80
2023-01-06T17:57:47.106Z,4.25
2023-01-06T18:00:24.193Z,3.85
2023-01-06T18:02:57.022Z,4.03
2023-01-06T18:05:27.132Z,3.10
2023-01-06T18:08:07.165Z,4.15
2023-01-06T18:10:36.409Z,4.25
2023-01-06T18:13:24.442Z,3.30
2023-01-06T18:15:58.349Z,2.90
2023-01-06T18:18:32.769Z,3.38
2023-01-06T18:21:08.018Z,2.80
2023-01-06T18:23:35.320Z,2.60
2023-01-06T18:26:26.248Z,2.75
2023-01-06T18:28:54.751Z,2.60
2023-01-06T18:31:23.773Z,3.42
2023-01-06T18:33:51.736Z,3.85
2023-01-06T18:36:18.719Z,2.92
2023-01-06T18:38:45.798Z,3.17
2023-01-06T18:41:13.743Z,2.60
2023-01-06T18:43:43.143Z,2.83
2023-01-06T18:46:19.248Z,3.72
2023-01-06T18:48:48.251Z,5.65
2023-01-06T18:51:24.967Z,9.40
2023-01-06T18:53:52.629Z,12.98
2023-01-06T18:56:23.041Z,8.02
2023-01-06T18:58:52.735Z,5.47
2023-01-06T19:01:38.145Z,6.28
2023-01-06T19:04:19.086Z,6.88
2023-01-06T19:07:17.661Z,4.43
2023-01-06T19:09:47.754Z,3.97
2023-01-06T19:12:25.422Z,3.13
2023-01-06T19:14:54.103Z,2.90
2023-01-06T19:17:33.728Z,2.97
2023-01-06T19:20:10.474Z,2.70
2023-01-06T19:25:28.008Z,2.00
2023-01-06T19:27:55.872Z,2.13
2023-01-06T19:30:53.680Z,2.38
2023-01-06T19:33:35.560Z,2.15
2023-01-06T19:36:11.494Z,2.20
2023-01-06T19:38:43.173Z,2.22
2023-01-06T19:41:23.765Z,1.70
2023-01-06T19:43:51.476Z,1.52
2023-01-06T19:46:30.073Z,2.03
2023-01-06T19:48:59.471Z,2.50
2023-01-06T19:51:34.710Z,1.95
2023-01-06T19:54:25.022Z,2.17
2023-01-06T19:56:53.300Z,1.63
2023-01-06T19:59:31.619Z,1.80
2023-01-06T20:02:07.305Z,2.00
2023-01-06T20:04:34.571Z,2.33
2023-01-06T20:07:04.495Z,1.90
2023-01-06T20:09:33.428Z,1.90
2023-01-06T20:12:00.955Z,2.05
2023-01-06T20:14:27.919Z,1.90
2023-01-06T20:16:55.024Z,2.30
2023-01-06T20:19:22.042Z,1.98
2023-01-06T20:21:49.172Z,2.10
2023-01-06T20:24:16.083Z,2.60
2023-01-06T20:26:43.175Z,2.05
2023-01-06T20:29:10.401Z,2.30
2023-01-06T20:31:37.794Z,2.35
2023-01-06T20:34:04.847Z,2.03
2023-01-06T20:36:32.145Z,7.15
2023-01-06T20:38:59.104Z,2.47
2023-01-06T20:41:26.034Z,2.05
2023-01-06T20:43:52.970Z,1.88
2023-01-06T20:46:19.894Z,1.83
2023-01-06T20:48:47.975Z,2.03
2023-01-06T20:51:14.920Z,1.73
2023-01-06T20:53:41.829Z,1.77
2023-01-06T20:56:08.952Z,1.70
2023-01-06T20:58:35.969Z,1.88
2023-01-06T21:01:02.955Z,1.48
2023-01-06T21:03:29.852Z,1.55
2023-01-06T21:05:56.805Z,1.10
2023-01-06T21:08:23.710Z,1.50
2023-01-06T21:10:50.581Z,1.40
2023-01-06T21:13:17.457Z,1.45
2023-01-06T21:15:44.325Z,1.30
2023-01-06T21:18:11.238Z,1.50
2023-01-06T21:20:38.126Z,1.20
2023-01-06T21:23:05.126Z,1.52
2023-01-06T21:25:32.002Z,1.45
2023-01-06T21:27:59.179Z,1.60
2023-01-06T21:30:28.451Z,1.10
2023-01-06T21:32:55.460Z,1.10
2023-01-06T21:35:22.365Z,1.30
2023-01-06T21:37:49.728Z,1.45
2023-01-06T21:40:16.682Z,1.88
2023-01-06T21:43:02.002Z,1.38
2023-01-06T21:45:29.120Z,1.55
2023-01-06T21:47:56.419Z,1.40
2023-01-06T21:50:25.989Z,1.50
2023-01-06T21:52:54.092Z,1.88
2023-01-06T21:55:21.227Z,1.85
2023-01-06T21:57:48.745Z,1.75
2023-01-06T22:00:15.980Z,1.80
2023-01-06T22:02:44.838Z,1.98
2023-01-06T22:05:11.804Z,1.75
2023-01-06T22:07:42.688Z,2.03
2023-01-06T22:10:12.457Z,2.03
2023-01-06T22:12:42.036Z,2.55
2023-01-06T22:15:09.589Z,2.15
2023-01-06T22:17:36.611Z,1.80
2023-01-06T22:20:05.547Z,2.30
2023-01-06T22:22:34.866Z,2.10
2023-01-06T22:25:03.962Z,1.83
2023-01-06T22:27:30.974Z,2.10
2023-01-06T22:29:57.902Z,2.50
2023-01-06T22:32:24.911Z,2.08
2023-01-06T22:34:51.934Z,2.55
2023-01-06T22:37:18.825Z,2.38
2023-01-06T22:39:46.841Z,2.55
2023-01-06T22:42:13.829Z,2.45
2023-01-06T22:44:40.827Z,1.92
2023-01-06T22:47:07.669Z,2.05
2023-01-06T22:49:34.491Z,2.45
2023-01-06T22:52:01.360Z,1.90
2023-01-06T22:54:28.223Z,2.28
2023-01-06T22:56:55.115Z,2.30
2023-01-06T22:59:22.033Z,2.25
2023-01-06T23:01:49.078Z,2.17
2023-01-06T23:04:16.165Z,2.00
2023-01-06T23:06:43.080Z,2.42
2023-01-06T23:09:09.946Z,2.05
2023-01-06T23:11:41.626Z,1.90
2023-01-06T23:14:10.610Z,1.90
2023-01-06T23:16:39.102Z,2.38
2023-01-06T23:19:07.011Z,2.00
2023-01-06T23:21:34.942Z,1.63
2023-01-06T23:24:02.396Z,2.28
2023-01-06T23:26:34.031Z,2.10
2023-01-06T23:29:01.521Z,1.77
2023-01-06T23:31:33.788Z,2.00
2023-01-06T23:34:04.859Z,1.83
2023-01-06T23:36:32.077Z,1.83
2023-01-06T23:39:00.677Z,2.30
2023-01-06T23:41:29.791Z,1.73
2023-01-06T23:43:57.490Z,2.25
2023-01-06T23:46:27.585Z,2.00
2023-01-06T23:48:55.350Z,2.00
2023-01-06T23:51:23.734Z,1.80
2023-01-06T23:53:51.270Z,1.98
2023-01-06T23:56:22.528Z,2.40
2023-01-06T23:58:52.554Z,2.05
